createdAt,value
2023-05-01T00:00:24.579Z,11.9205
2023-05-01T00:01:25.678Z,11.9139
2023-05-01T00:02:26.797Z,11.8891
2023-05-01T00:03:27.878Z,11.9345
2023-05-01T00:04:28.763Z,11.9409
2023-05-01T00:05:29.785Z,11.9633
2023-05-01T00:06:30.926Z,11.9439
2023-05-01T00:07:31.929Z,11.9127
2023-05-01T00:08:32.909Z,11.9312
2023-05-01T00:09:33.945Z,11.9419
2023-05-01T00:10:34.957Z,11.9339
2023-05-01T00:11:36.063Z,11.9302
2023-05-01T00:12:37.155Z,11.9365
2023-05-01T00:13:38.081Z,11.9061
2023-05-01T00:14:39.108Z,11.9289
2023-05-01T00:15:40.159Z,11.9407
2023-05-01T00:16:41.258Z,11.9082
2023-05-01T00:17:42.320Z,11.9201
2023-05-01T00:18:43.259Z,11.9462
2023-05-01T00:19:44.310Z,11.9423
2023-05-01T00:20:45.322Z,11.9651
2023-05-01T00:21:46.459Z,11.9556
2023-05-01T00:22:47.423Z,11.9382
2023-05-01T00:23:48.471Z,11.9374
2023-05-01T00:24:49.482Z,11.9355
2023-05-01T00:25:50.558Z,11.9384
2023-05-01T00:26:51.597Z,11.9144
2023-05-01T00:27:52.651Z,11.9345
2023-05-01T00:28:53.936Z,11.9039
2023-05-01T00:29:54.943Z,11.9027
2023-05-01T00:30:55.732Z,11.8848
2023-05-01T00:31:56.838Z,11.8492
2023-05-01T00:32:57.860Z,11.8330
2023-05-01T00:33:58.913Z,11.8166
2023-05-01T00:34:59.880Z,11.8283
2023-05-01T00:36:00.961Z,11.8207
2023-05-01T00:37:01.957Z,11.7451
2023-05-01T00:38:03.088Z,11.6851
2023-05-01T00:39:04.061Z,11.6422
2023-05-01T00:40:05.100Z,11.6120
2023-05-01T00:41:06.138Z,11.5968
2023-05-01T00:42:07.207Z,11.5947
2023-05-01T00:43:08.237Z,11.5555
2023-05-01T00:44:09.287Z,11.4935
2023-05-01T00:45:10.260Z,11.4762
2023-05-01T00:46:11.376Z,11.4602
2023-05-01T00:47:12.339Z,11.4742
2023-05-01T00:48:13.435Z,11.4052
2023-05-01T00:49:14.437Z,11.3951
2023-05-01T00:50:15.489Z,11.3789
2023-05-01T00:51:16.506Z,11.4008
2023-05-01T00:52:17.565Z,11.3844
2023-05-01T00:53:18.577Z,11.2731
2023-05-01T00:54:19.656Z,11.2199
2023-05-01T00:55:20.645Z,11.2394
2023-05-01T00:56:21.656Z,11.2435
2023-05-01T00:57:22.672Z,11.2556
2023-05-01T00:58:23.750Z,11.2499
2023-05-01T00:59:24.793Z,11.1671
2023-05-01T01:00:25.849Z,11.2024
2023-05-01T01:01:26.973Z,11.0948
2023-05-01T01:02:27.922Z,11.0958
2023-05-01T01:03:29.006Z,11.0547
2023-05-01T01:04:30.074Z,11.0036
2023-05-01T01:05:31.022Z,11.0385
2023-05-01T01:06:32.058Z,11.0473
2023-05-01T01:07:33.094Z,11.0946
2023-05-01T01:08:34.161Z,11.0531
2023-05-01T01:09:35.334Z,11.0319
2023-05-01T01:10:36.161Z,10.9873
2023-05-01T01:11:37.221Z,11.0112
2023-05-01T01:12:38.252Z,10.9578
2023-05-01T01:13:39.301Z,10.8818
2023-05-01T01:14:40.301Z,10.9280
2023-05-01T01:15:41.320Z,10.9072
2023-05-01T01:16:42.354Z,10.9007
2023-05-01T01:17:43.417Z,10.8840
2023-05-01T01:18:44.438Z,10.8559
2023-05-01T01:19:45.490Z,10.8261
2023-05-01T01:20:46.507Z,10.8206
2023-05-01T01:21:47.586Z,10.7984
2023-05-01T01:22:48.514Z,10.7953
2023-05-01T01:23:49.584Z,10.7573
2023-05-01T01:24:50.593Z,10.6844
2023-05-01T01:25:51.652Z,10.7370
2023-05-01T01:26:52.645Z,10.6852
2023-05-01T01:27:53.692Z,10.6712
2023-05-01T01:28:54.765Z,10.6248
2023-05-01T01:29:56.200Z,10.6141
2023-05-01T01:30:56.908Z,10.6057
2023-05-01T01:31:57.825Z,10.6057
2023-05-01T01:32:58.885Z,10.6119
2023-05-01T01:33:59.945Z,10.5550
2023-05-01T01:35:00.934Z,10.5626
2023-05-01T01:36:01.970Z,10.5603
2023-05-01T01:37:02.999Z,10.5083
2023-05-01T01:38:04.016Z,10.5344
2023-05-01T01:39:05.091Z,10.4894
2023-05-01T01:40:06.171Z,10.4835
2023-05-01T01:41:07.174Z,10.3674
2023-05-01T01:42:08.210Z,10.3927
2023-05-01T01:43:09.183Z,10.4331
2023-05-01T01:44:10.274Z,10.4734
2023-05-01T01:45:11.273Z,10.4718
2023-05-01T01:46:12.382Z,10.4089
2023-05-01T01:47:13.356Z,10.3765
2023-05-01T01:48:14.378Z,10.4346
2023-05-01T01:49:15.382Z,10.4085
2023-05-01T01:50:16.537Z,10.2951
2023-05-01T01:51:17.496Z,10.2596
2023-05-01T01:52:18.551Z,10.2240
2023-05-01T01:53:19.590Z,10.1078
2023-05-01T01:54:20.591Z,10.0948
2023-05-01T01:55:21.611Z,10.1302
2023-05-01T01:56:22.658Z,10.1119
2023-05-01T01:57:23.704Z,10.0992
2023-05-01T01:58:24.747Z,10.1454
2023-05-01T01:59:25.742Z,10.0989
2023-05-01T02:00:26.801Z,10.0893
2023-05-01T02:01:27.824Z,10.0589
2023-05-01T02:02:28.980Z,10.0462
2023-05-01T02:03:29.971Z,9.9248
2023-05-01T02:04:30.949Z,9.8804
2023-05-01T02:05:31.939Z,9.8687
2023-05-01T02:06:33.040Z,9.8321
2023-05-01T02:07:34.021Z,9.7797
2023-05-01T02:08:35.120Z,9.8132
2023-05-01T02:09:36.136Z,9.8042
2023-05-01T02:10:37.155Z,9.8011
2023-05-01T02:11:38.194Z,9.8677
2023-05-01T02:12:39.212Z,9.8642
2023-05-01T02:13:40.297Z,9.7894
2023-05-01T02:14:41.345Z,9.7732
2023-05-01T02:15:42.347Z,9.7865
2023-05-01T02:16:43.393Z,9.7841
2023-05-01T02:17:44.407Z,9.7341
2023-05-01T02:18:45.473Z,9.7717
2023-05-01T02:19:46.517Z,9.8058
2023-05-01T02:20:47.542Z,9.7730
2023-05-01T02:21:48.533Z,9.7385
2023-05-01T02:22:49.573Z,9.8360
2023-05-01T02:23:50.623Z,9.8288
2023-05-01T02:24:51.673Z,9.7773
2023-05-01T02:25:52.655Z,9.7711
2023-05-01T02:26:53.693Z,9.7000
2023-05-01T02:27:54.723Z,9.6988
2023-05-01T02:28:55.791Z,9.6914
2023-05-01T02:29:57.150Z,9.7111
2023-05-01T02:30:57.853Z,9.6799
2023-05-01T02:31:59.056Z,9.7064
2023-05-01T02:32:59.958Z,9.7524
2023-05-01T02:34:00.955Z,9.6814
2023-05-01T02:35:02.001Z,9.5774
2023-05-01T02:36:02.977Z,9.5314
2023-05-01T02:37:04.010Z,9.6191
2023-05-01T02:38:05.036Z,9.6047
2023-05-01T02:39:06.136Z,9.6446
2023-05-01T02:40:07.165Z,9.6982
2023-05-01T02:41:08.175Z,9.6355
2023-05-01T02:42:09.233Z,9.6351
2023-05-01T02:43:10.255Z,9.6512
2023-05-01T02:44:11.281Z,9.7171
2023-05-01T02:45:12.314Z,9.8044
2023-05-01T02:46:13.341Z,9.8212
2023-05-01T02:47:14.407Z,9.6951
2023-05-01T02:48:15.381Z,9.6935
2023-05-01T02:49:16.479Z,9.7120
2023-05-01T02:50:17.516Z,9.7118
2023-05-01T02:51:18.504Z,9.6883
2023-05-01T02:52:19.543Z,9.6386
2023-05-01T02:53:20.598Z,9.6140
2023-05-01T02:54:21.633Z,9.6666
2023-05-01T02:55:22.679Z,9.6097
2023-05-01T02:56:23.679Z,9.6553
2023-05-01T02:57:24.743Z,9.5961
2023-05-01T02:58:25.776Z,9.6510
2023-05-01T02:59:26.826Z,9.6653
2023-05-01T03:00:27.869Z,9.5468
2023-05-01T03:01:28.905Z,9.4846
2023-05-01T03:02:29.878Z,9.4922
2023-05-01T03:03:30.942Z,9.5080
2023-05-01T03:04:32.038Z,9.5261
2023-05-01T03:05:33.024Z,9.5065
2023-05-01T03:06:34.073Z,9.5160
2023-05-01T03:07:35.102Z,9.5497
2023-05-01T03:08:36.103Z,9.5296
2023-05-01T03:09:37.158Z,9.5936
2023-05-01T03:10:38.217Z,9.5860
2023-05-01T03:11:39.203Z,9.5815
2023-05-01T03:12:40.257Z,9.5090
2023-05-01T03:13:41.256Z,9.5369
2023-05-01T03:14:42.333Z,9.5577
2023-05-01T03:15:43.338Z,9.5382
2023-05-01T03:16:44.433Z,9.5515
2023-05-01T03:17:45.408Z,9.5645
2023-05-01T03:18:46.441Z,9.5328
2023-05-01T03:19:47.457Z,9.4905
2023-05-01T03:20:48.529Z,9.5226
2023-05-01T03:21:49.519Z,9.5141
2023-05-01T03:22:50.568Z,9.5643
2023-05-01T03:23:51.593Z,9.6610
2023-05-01T03:24:52.668Z,9.5881
2023-05-01T03:25:53.698Z,9.5673
2023-05-01T03:26:54.737Z,9.5534
2023-05-01T03:27:55.713Z,9.5308
2023-05-01T03:28:56.762Z,9.3934
2023-05-01T03:29:58.060Z,9.4223
2023-05-01T03:30:58.876Z,9.4073
2023-05-01T03:31:59.940Z,9.4552
2023-05-01T03:33:00.975Z,9.4611
2023-05-01T03:34:01.918Z,9.4303
2023-05-01T03:35:03.113Z,9.4092
2023-05-01T03:36:04.044Z,9.3829
2023-05-01T03:37:05.061Z,9.4353
2023-05-01T03:38:06.110Z,9.4073
2023-05-01T03:39:07.136Z,9.3903
2023-05-01T03:40:08.184Z,9.3482
2023-05-01T03:41:09.211Z,9.2978
2023-05-01T03:42:10.210Z,9.3358
2023-05-01T03:43:11.273Z,9.4616
2023-05-01T03:44:12.251Z,9.4104
2023-05-01T03:45:13.339Z,9.3675
2023-05-01T03:46:14.421Z,9.3474
2023-05-01T03:47:15.388Z,9.4225
2023-05-01T03:48:16.397Z,9.3804
2023-05-01T03:49:17.469Z,9.2765
2023-05-01T03:50:18.508Z,9.2728
2023-05-01T03:51:19.533Z,9.3556
2023-05-01T03:52:20.508Z,9.3319
2023-05-01T03:53:21.570Z,9.2179
2023-05-01T03:54:22.613Z,9.2290
2023-05-01T03:55:23.675Z,9.3523
2023-05-01T03:56:24.653Z,9.3804
2023-05-01T03:57:25.753Z,9.3404
2023-05-01T03:58:26.721Z,9.3221
2023-05-01T03:59:27.827Z,9.3628
2023-05-01T04:00:28.812Z,9.3825
2023-05-01T04:01:29.873Z,9.4381
2023-05-01T04:02:30.973Z,9.4338
2023-05-01T04:03:31.974Z,9.4016
2023-05-01T04:04:33.049Z,9.3644
2023-05-01T04:05:33.992Z,9.3973
2023-05-01T04:06:35.081Z,9.4246
2023-05-01T04:07:36.056Z,9.4279
2023-05-01T04:08:37.054Z,9.4018
2023-05-01T04:09:38.123Z,9.3591
2023-05-01T04:10:39.163Z,9.3276
2023-05-01T04:11:40.215Z,9.3057
2023-05-01T04:12:41.194Z,9.3038
2023-05-01T04:13:42.322Z,9.3194
2023-05-01T04:14:43.280Z,9.3153
2023-05-01T04:15:44.393Z,9.3566
2023-05-01T04:16:45.359Z,9.4022
2023-05-01T04:17:46.402Z,9.4215
2023-05-01T04:18:47.412Z,9.3133
2023-05-01T04:19:48.464Z,9.2629
2023-05-01T04:20:49.510Z,9.2537
2023-05-01T04:21:50.553Z,9.2748
2023-05-01T04:22:51.518Z,9.2621
2023-05-01T04:23:52.570Z,9.2968
2023-05-01T04:24:53.604Z,9.3048
2023-05-01T04:25:54.729Z,9.3969
2023-05-01T04:26:55.710Z,9.3870
2023-05-01T04:27:56.752Z,9.3956
2023-05-01T04:28:57.757Z,9.3034
2023-05-01T04:29:59.040Z,9.3449
2023-05-01T04:30:59.840Z,9.4234
2023-05-01T04:32:00.984Z,9.3763
2023-05-01T04:33:02.008Z,9.3494
2023-05-01T04:34:02.944Z,9.4106
2023-05-01T04:35:04.319Z,9.4104
2023-05-01T04:36:05.003Z,9.4244
2023-05-01T04:37:06.032Z,9.3478
2023-05-01T04:38:07.089Z,9.4184
2023-05-01T04:39:08.070Z,9.4527
2023-05-01T04:40:11.262Z,9.4786
2023-05-01T04:41:10.148Z,9.4646
2023-05-01T04:42:11.233Z,9.4172
2023-05-01T04:43:12.230Z,9.4203
2023-05-01T04:44:13.258Z,9.4685
2023-05-01T04:45:14.273Z,9.4285
2023-05-01T04:46:15.331Z,9.4653
2023-05-01T04:47:16.367Z,9.5043
2023-05-01T04:48:17.439Z,9.5049
2023-05-01T04:49:18.389Z,9.5047
2023-05-01T04:50:19.455Z,9.5154
2023-05-01T04:51:20.457Z,9.4850
2023-05-01T04:52:21.582Z,9.5361
2023-05-01T04:53:22.602Z,9.5402
2023-05-01T04:54:23.588Z,9.4926
2023-05-01T04:55:24.599Z,9.5273
2023-05-01T04:56:25.662Z,9.5296
2023-05-01T04:57:26.687Z,9.6006
2023-05-01T04:58:27.710Z,9.6033
2023-05-01T04:59:28.752Z,9.6072
2023-05-01T05:00:29.768Z,9.5413
2023-05-01T05:01:30.903Z,9.5754
2023-05-01T05:02:32.128Z,9.6208
2023-05-01T05:03:33.032Z,9.5526
2023-05-01T05:04:34.030Z,9.6056
2023-05-01T05:05:35.008Z,9.6883
2023-05-01T05:06:36.075Z,9.6740
2023-05-01T05:07:37.066Z,9.6799
2023-05-01T05:08:38.130Z,9.7393
2023-05-01T05:09:39.155Z,9.7621
2023-05-01T05:10:40.154Z,9.6056
2023-05-01T05:11:41.217Z,9.7000
2023-05-01T05:12:42.242Z,9.7278
2023-05-01T05:13:43.349Z,9.7506
2023-05-01T05:14:44.350Z,9.7245
2023-05-01T05:15:45.374Z,9.6604
2023-05-01T05:16:46.401Z,9.6906
2023-05-01T05:17:47.463Z,9.7126
2023-05-01T05:18:48.478Z,9.7144
2023-05-01T05:19:49.532Z,9.8184
2023-05-01T05:20:50.523Z,9.8467
2023-05-01T05:21:51.536Z,9.9309
2023-05-01T05:22:52.550Z,9.8880
2023-05-01T05:23:53.655Z,9.8781
2023-05-01T05:24:54.667Z,9.7602
2023-05-01T05:25:55.713Z,9.8058
2023-05-01T05:26:56.730Z,9.8601
2023-05-01T05:27:57.750Z,9.8913
2023-05-01T05:28:58.750Z,9.8504
2023-05-01T05:29:59.858Z,9.9141
2023-05-01T05:31:00.875Z,9.9430
2023-05-01T05:32:01.992Z,9.9506
2023-05-01T05:33:03.025Z,9.9989
2023-05-01T05:34:03.953Z,10.0503
2023-05-01T05:35:04.951Z,10.1203
2023-05-01T05:36:06.053Z,10.1359
2023-05-01T05:37:07.075Z,10.0959
2023-05-01T05:38:08.092Z,9.9874
2023-05-01T05:39:09.116Z,10.0001
2023-05-01T05:40:10.177Z,9.9428
2023-05-01T05:41:11.210Z,9.9215
2023-05-01T05:42:12.248Z,9.9646
2023-05-01T05:43:13.237Z,10.0090
2023-05-01T05:44:14.280Z,10.0308
2023-05-01T05:45:15.282Z,9.9365
2023-05-01T05:46:16.360Z,9.9453
2023-05-01T05:47:17.395Z,9.9075
2023-05-01T05:48:18.405Z,9.9375
2023-05-01T05:49:19.432Z,9.9806
2023-05-01T05:50:20.476Z,10.0355
2023-05-01T05:51:21.523Z,9.9983
2023-05-01T05:52:22.577Z,9.8868
2023-05-01T05:53:25.706Z,9.9428
2023-05-01T05:54:24.637Z,9.8707
2023-05-01T05:55:25.605Z,9.8685
2023-05-01T05:56:26.699Z,9.9192
2023-05-01T05:57:27.697Z,9.9227
2023-05-01T05:58:28.743Z,9.9369
2023-05-01T05:59:29.757Z,9.9786
2023-05-01T06:00:30.892Z,10.0503
2023-05-01T06:01:31.867Z,10.1144
2023-05-01T06:02:33.035Z,10.1355
2023-05-01T06:03:34.100Z,10.0472
2023-05-01T06:04:34.938Z,9.9950
2023-05-01T06:05:35.976Z,10.0355
2023-05-01T06:06:37.124Z,10.0546
2023-05-01T06:07:38.054Z,9.9934
2023-05-01T06:08:39.136Z,10.0125
2023-05-01T06:09:40.178Z,10.0476
2023-05-01T06:10:41.259Z,10.0453
2023-05-01T06:11:42.302Z,10.0045
2023-05-01T06:12:50.005Z,10.0718
2023-05-01T06:13:44.391Z,10.0601
2023-05-01T06:14:45.370Z,10.0887
2023-05-01T06:15:46.466Z,10.1207
2023-05-01T06:16:47.439Z,10.1335
2023-05-01T06:17:48.612Z,10.1694
2023-05-01T06:18:49.538Z,10.1445
2023-05-01T06:19:50.521Z,10.1801
2023-05-01T06:20:51.533Z,10.3054
2023-05-01T06:21:52.598Z,10.3765
2023-05-01T06:22:53.664Z,10.3399
2023-05-01T06:23:54.725Z,10.3003
2023-05-01T06:24:55.697Z,10.3393
2023-05-01T06:25:56.735Z,10.4237
2023-05-01T06:26:58.681Z,10.4301
2023-05-01T06:27:58.854Z,10.3230
2023-05-01T06:28:59.920Z,10.4019
2023-05-01T06:30:00.941Z,10.4206
2023-05-01T06:31:01.815Z,10.4151
2023-05-01T06:32:02.899Z,10.4208
2023-05-01T06:33:03.913Z,10.4346
2023-05-01T06:34:04.951Z,10.4761
2023-05-01T06:35:05.921Z,10.4477
2023-05-01T06:36:06.973Z,10.3851
2023-05-01T06:37:08.024Z,10.4473
2023-05-01T06:38:09.092Z,10.4985
2023-05-01T06:39:10.117Z,10.5999
2023-05-01T06:40:11.135Z,10.5278
2023-05-01T06:41:12.160Z,10.5365
2023-05-01T06:42:13.174Z,10.5517
2023-05-01T06:43:14.248Z,10.6400
2023-05-01T06:44:15.291Z,10.6628
2023-05-01T06:45:16.312Z,10.6560
2023-05-01T06:46:17.388Z,10.7240
2023-05-01T06:47:18.320Z,10.6778
2023-05-01T06:48:19.370Z,10.6718
2023-05-01T06:49:20.411Z,10.6583
2023-05-01T06:50:21.491Z,10.7316
2023-05-01T06:51:22.491Z,10.7339
2023-05-01T06:52:23.537Z,10.7129
2023-05-01T06:53:24.558Z,10.8076
2023-05-01T06:54:25.704Z,10.8481
2023-05-01T06:55:26.671Z,10.8524
2023-05-01T06:56:27.669Z,10.9140
2023-05-01T06:57:28.692Z,10.9873
2023-05-01T06:58:29.753Z,10.9278
2023-05-01T06:59:30.792Z,10.8978
2023-05-01T07:00:31.837Z,10.9767
2023-05-01T07:01:35.322Z,11.0679
2023-05-01T07:02:33.943Z,10.9865
2023-05-01T07:03:35.013Z,10.8581
2023-05-01T07:04:35.976Z,11.0344
2023-05-01T07:05:37.008Z,11.0894
2023-05-01T07:06:38.154Z,11.1165
2023-05-01T07:07:47.280Z,11.1250
2023-05-01T07:08:40.082Z,11.0740
2023-05-01T07:09:41.166Z,11.1011
2023-05-01T07:10:42.496Z,11.1352
2023-05-01T07:11:43.234Z,11.2490
2023-05-01T07:12:44.198Z,11.2264
2023-05-01T07:13:45.260Z,11.0321
2023-05-01T07:14:46.338Z,11.1069
2023-05-01T07:15:47.352Z,11.1371
2023-05-01T07:16:48.490Z,11.0853
2023-05-01T07:17:49.449Z,11.1237
2023-05-01T07:18:50.466Z,11.1433
2023-05-01T07:19:51.495Z,11.1003
2023-05-01T07:20:52.540Z,11.0633
2023-05-01T07:21:53.553Z,11.1455
2023-05-01T07:22:54.587Z,11.0935
2023-05-01T07:23:55.784Z,11.0827
2023-05-01T07:24:56.720Z,11.0933
2023-05-01T07:25:57.713Z,10.9984
2023-05-01T07:26:58.722Z,10.9962
2023-05-01T07:27:59.757Z,11.0636
2023-05-01T07:29:00.796Z,11.1036
2023-05-01T07:30:01.870Z,11.1693
2023-05-01T07:31:02.937Z,11.2396
2023-05-01T07:32:04.088Z,11.3606
2023-05-01T07:33:04.963Z,11.3096
2023-05-01T07:34:05.934Z,11.3119
2023-05-01T07:35:07.009Z,11.1032
2023-05-01T07:36:08.139Z,11.2772
2023-05-01T07:37:09.290Z,11.3466
2023-05-01T07:38:10.076Z,11.2254
2023-05-01T07:39:11.142Z,11.3587
2023-05-01T07:40:12.221Z,11.4686
2023-05-01T07:41:13.213Z,11.3509
2023-05-01T07:42:14.272Z,11.2414
2023-05-01T07:43:15.262Z,11.3423
2023-05-01T07:44:16.304Z,11.3250
2023-05-01T07:45:17.316Z,11.2536
2023-05-01T07:46:18.403Z,11.3183
2023-05-01T07:47:19.468Z,11.4263
2023-05-01T07:48:20.437Z,11.3076
2023-05-01T07:49:21.578Z,11.3012
2023-05-01T07:50:22.483Z,11.3059
2023-05-01T07:51:23.570Z,11.1693
2023-05-01T07:52:24.588Z,11.2006
2023-05-01T07:53:25.619Z,11.1683
2023-05-01T07:54:26.634Z,11.2328
2023-05-01T07:55:27.699Z,11.2577
2023-05-01T07:56:28.738Z,11.3308
2023-05-01T07:57:29.771Z,11.4134
2023-05-01T07:58:30.758Z,11.3382
2023-05-01T07:59:31.821Z,11.2836
2023-05-01T08:00:32.815Z,11.3218
2023-05-01T08:01:33.932Z,11.3725
2023-05-01T08:02:34.978Z,11.3390
2023-05-01T08:03:36.003Z,11.3702
2023-05-01T08:04:37.023Z,11.3922
2023-05-01T08:05:38.148Z,11.3088
2023-05-01T08:06:39.189Z,11.2885
2023-05-01T08:07:40.127Z,11.3885
2023-05-01T08:08:41.149Z,11.4025
2023-05-01T08:09:42.333Z,11.3965
2023-05-01T08:10:43.173Z,11.3680
2023-05-01T08:11:44.209Z,11.3780
2023-05-01T08:12:45.297Z,11.3105
2023-05-01T08:13:46.367Z,11.4386
2023-05-01T08:14:47.309Z,11.3758
2023-05-01T08:15:48.493Z,11.3639
2023-05-01T08:16:49.520Z,11.4275
2023-05-01T08:17:50.678Z,11.4733
2023-05-01T08:18:51.631Z,11.4483
2023-05-01T08:19:52.654Z,11.4191
2023-05-01T08:20:53.639Z,11.4567
2023-05-01T08:21:54.657Z,11.4851
2023-05-01T08:22:55.734Z,11.4941
2023-05-01T08:23:56.773Z,11.5255
2023-05-01T08:24:57.831Z,11.6026
2023-05-01T08:25:58.841Z,11.6186
2023-05-01T08:26:59.876Z,11.5459
2023-05-01T08:28:00.935Z,11.5500
2023-05-01T08:29:02.025Z,11.5853
2023-05-01T08:30:03.006Z,11.6040
2023-05-01T08:31:04.067Z,11.7116
2023-05-01T08:32:04.951Z,11.8184
2023-05-01T08:33:06.183Z,11.8318
2023-05-01T08:34:07.241Z,11.8953
2023-05-01T08:35:08.157Z,11.9213
2023-05-01T08:36:09.199Z,12.0561
2023-05-01T08:37:10.316Z,11.9376
2023-05-01T08:38:11.385Z,11.9540
2023-05-01T08:39:12.436Z,12.0027
2023-05-01T08:40:13.401Z,11.8690
2023-05-01T08:41:14.425Z,12.0047
2023-05-01T08:42:15.460Z,11.9429
2023-05-01T08:43:16.512Z,11.8759
2023-05-01T08:44:17.582Z,12.0508
2023-05-01T08:45:18.499Z,12.0006
2023-05-01T08:46:19.592Z,11.9908
2023-05-01T08:47:20.672Z,12.0869
2023-05-01T08:48:21.674Z,12.0762
2023-05-01T08:49:22.673Z,11.9994
2023-05-01T08:50:23.721Z,12.1376
2023-05-01T08:51:24.714Z,12.0602
2023-05-01T08:52:25.751Z,11.9047
2023-05-01T08:53:26.826Z,11.9895
2023-05-01T08:54:27.870Z,11.9758
2023-05-01T08:55:28.909Z,11.9384
2023-05-01T08:56:29.986Z,11.7640
2023-05-01T08:57:30.915Z,11.8554
2023-05-01T08:58:32.125Z,11.8359
2023-05-01T08:59:33.038Z,11.8977
2023-05-01T09:00:34.041Z,11.8889
2023-05-01T09:01:35.170Z,11.8326
2023-05-01T09:02:36.219Z,11.7852
2023-05-01T09:03:37.260Z,11.8055
2023-05-01T09:04:38.271Z,11.8090
2023-05-01T09:05:39.312Z,11.8846
2023-05-01T09:06:40.388Z,11.8967
2023-05-01T09:07:41.346Z,11.9029
2023-05-01T09:08:42.446Z,11.6929
2023-05-01T09:09:43.513Z,11.7615
2023-05-01T09:10:44.484Z,11.7527
2023-05-01T09:11:45.572Z,11.8055
2023-05-01T09:12:46.550Z,11.8963
2023-05-01T09:13:47.610Z,11.9439
2023-05-01T09:14:48.747Z,12.0002
2023-05-01T09:15:49.676Z,12.0148
2023-05-01T09:16:50.813Z,11.8303
2023-05-01T09:17:51.758Z,12.0013
2023-05-01T09:18:52.768Z,11.9012
2023-05-01T09:19:53.834Z,11.9464
2023-05-01T09:20:54.809Z,12.0214
2023-05-01T09:21:55.867Z,12.0448
2023-05-01T09:22:56.878Z,12.0530
2023-05-01T09:23:57.930Z,12.1489
2023-05-01T09:24:59.028Z,12.2449
2023-05-01T09:26:00.036Z,12.0994
2023-05-01T09:27:01.107Z,12.1680
2023-05-01T09:28:02.053Z,12.1327
2023-05-01T09:29:03.203Z,12.2467
2023-05-01T09:30:04.187Z,12.2636
2023-05-01T09:31:05.150Z,12.3038
2023-05-01T09:32:06.206Z,12.3305
2023-05-01T09:33:07.285Z,12.3114
2023-05-01T09:34:08.299Z,12.3759
2023-05-01T09:35:09.356Z,12.4416
2023-05-01T09:36:10.290Z,12.5721
2023-05-01T09:37:11.385Z,12.4028
2023-05-01T09:38:12.372Z,12.3642
2023-05-01T09:39:13.497Z,12.4207
2023-05-01T09:40:14.568Z,12.5310
2023-05-01T09:41:15.491Z,12.4423
2023-05-01T09:42:16.568Z,12.6021
2023-05-01T09:43:17.556Z,12.6491
2023-05-01T09:44:18.629Z,12.8428
2023-05-01T09:45:19.727Z,12.7268
2023-05-01T09:46:20.708Z,12.7535
2023-05-01T09:47:21.772Z,12.7159
2023-05-01T09:48:22.713Z,12.8989
2023-05-01T09:49:23.784Z,12.8034
2023-05-01T09:50:24.856Z,12.6931
2023-05-01T09:51:25.812Z,12.7099
2023-05-01T09:52:26.815Z,12.8327
2023-05-01T09:53:27.987Z,12.9790
2023-05-01T09:54:28.934Z,13.0663
2023-05-01T09:55:30.032Z,13.0503
2023-05-01T09:56:31.067Z,13.0490
2023-05-01T09:57:32.032Z,13.1185
2023-05-01T09:58:33.056Z,13.1967
2023-05-01T09:59:34.150Z,13.2984
2023-05-01T10:00:35.174Z,13.3309
2023-05-01T10:01:36.248Z,13.1782
2023-05-01T10:02:37.244Z,13.2547
2023-05-01T10:03:38.626Z,13.2902
2023-05-01T10:04:39.295Z,13.3364
2023-05-01T10:05:40.374Z,13.5036
2023-05-01T10:06:41.474Z,13.5340
2023-05-01T10:07:42.505Z,13.4911
2023-05-01T10:08:43.417Z,13.5141
2023-05-01T10:09:44.543Z,13.2719
2023-05-01T10:10:45.564Z,13.3068
2023-05-01T10:11:46.534Z,13.5114
2023-05-01T10:12:47.627Z,13.0885
2023-05-01T10:13:48.602Z,13.0946
2023-05-01T10:14:49.721Z,13.1897
2023-05-01T10:15:50.836Z,13.2409
2023-05-01T10:16:51.794Z,13.3861
2023-05-01T10:17:52.818Z,13.1727
2023-05-01T10:18:53.775Z,13.2910
2023-05-01T10:19:55.227Z,13.4985
2023-05-01T10:20:55.909Z,13.5926
2023-05-01T10:21:56.943Z,13.7879
2023-05-01T10:22:57.984Z,13.6291
2023-05-01T10:23:59.011Z,13.5507
2023-05-01T10:25:00.047Z,13.6608
2023-05-01T10:26:02.508Z,13.7409
2023-05-01T10:27:02.108Z,13.7331
2023-05-01T10:28:03.071Z,13.5525
2023-05-01T10:29:04.122Z,13.6747
2023-05-01T10:30:05.300Z,13.7787
2023-05-01T10:31:06.261Z,13.7992
2023-05-01T10:32:07.219Z,13.5683
2023-05-01T10:33:08.368Z,13.7789
2023-05-01T10:34:09.287Z,13.4276
2023-05-01T10:35:10.390Z,13.7873
2023-05-01T10:36:11.432Z,13.9717
2023-05-01T10:37:12.455Z,13.8785
2023-05-01T10:38:13.426Z,13.7780
2023-05-01T10:39:14.508Z,13.9311
2023-05-01T10:40:15.590Z,14.0169
2023-05-01T10:41:16.588Z,13.8446
2023-05-01T10:42:17.634Z,13.7904
2023-05-01T10:43:18.653Z,13.5067
2023-05-01T10:44:19.717Z,13.4525
2023-05-01T10:45:20.752Z,13.7312
2023-05-01T10:46:21.914Z,13.6219
2023-05-01T10:47:22.808Z,13.8464
2023-05-01T10:48:23.805Z,13.8826
2023-05-01T10:49:24.878Z,13.8816
2023-05-01T10:50:25.952Z,14.1854
2023-05-01T10:51:28.271Z,13.7396
2023-05-01T10:52:27.969Z,13.7579
2023-05-01T10:53:28.986Z,13.8239
2023-05-01T10:54:29.991Z,13.6285
2023-05-01T10:55:31.185Z,13.6790
2023-05-01T10:56:32.164Z,13.8990
2023-05-01T10:57:33.149Z,13.8530
2023-05-01T10:58:34.162Z,13.8078
2023-05-01T10:59:35.275Z,14.0206
2023-05-01T11:00:36.277Z,14.0260
2023-05-01T11:01:37.389Z,14.1024
2023-05-01T11:02:38.336Z,13.9598
2023-05-01T11:03:39.360Z,14.1494
2023-05-01T11:04:40.336Z,14.0747
2023-05-01T11:05:41.582Z,14.0529
2023-05-01T11:06:42.642Z,13.7411
2023-05-01T11:07:43.478Z,14.0328
2023-05-01T11:08:45.544Z,13.5856
2023-05-01T11:09:45.506Z,13.8401
2023-05-01T11:10:46.616Z,13.8356
2023-05-01T11:11:47.674Z,13.8692
2023-05-01T11:12:48.679Z,13.3354
2023-05-01T11:13:49.675Z,13.4771
2023-05-01T11:14:50.697Z,13.3572
2023-05-01T11:15:51.844Z,13.2456
2023-05-01T11:16:52.865Z,13.1183
2023-05-01T11:17:53.911Z,13.3915
2023-05-01T11:18:54.855Z,13.4790
2023-05-01T11:19:55.886Z,13.5474
2023-05-01T11:20:56.944Z,13.4759
2023-05-01T11:21:57.973Z,13.3064
2023-05-01T11:22:59.026Z,13.4851
2023-05-01T11:24:00.023Z,12.9889
2023-05-01T11:25:01.056Z,13.1205
2023-05-01T11:26:02.092Z,12.9053
2023-05-01T11:27:03.187Z,12.6643
2023-05-01T11:28:04.178Z,12.7251
2023-05-01T11:29:05.270Z,12.7578
2023-05-01T11:30:06.226Z,12.6791
2023-05-01T11:31:07.364Z,12.6481
2023-05-01T11:32:08.483Z,12.6748
2023-05-01T11:33:10.964Z,12.8219
2023-05-01T11:34:10.361Z,12.8675
2023-05-01T11:35:11.411Z,12.8262
2023-05-01T11:36:12.457Z,13.0365
2023-05-01T11:37:13.504Z,13.1487
2023-05-01T11:38:14.465Z,13.1281
2023-05-01T11:39:15.557Z,13.0312
2023-05-01T11:40:16.571Z,13.1700
2023-05-01T11:41:19.254Z,13.3518
2023-05-01T11:42:18.721Z,13.1739
2023-05-01T11:43:19.755Z,13.1022
2023-05-01T11:44:20.694Z,13.0700
2023-05-01T11:45:21.772Z,13.2191
2023-05-01T11:46:22.846Z,13.3508
2023-05-01T11:47:23.898Z,13.3559
2023-05-01T11:48:24.843Z,13.2557
2023-05-01T11:49:25.876Z,13.1885
2023-05-01T11:50:26.895Z,13.2999
2023-05-01T11:51:28.048Z,13.3621
2023-05-01T11:52:29.026Z,13.2670
2023-05-01T11:53:30.049Z,13.3598
2023-05-01T11:54:31.039Z,13.1427
2023-05-01T11:55:32.080Z,13.2275
2023-05-01T11:56:33.162Z,13.3582
2023-05-01T11:57:34.188Z,13.3880
2023-05-01T11:58:35.227Z,13.2442
2023-05-01T11:59:36.190Z,13.5201
2023-05-01T12:00:37.216Z,13.4586
2023-05-01T12:01:38.296Z,13.4453
2023-05-01T12:02:39.428Z,13.3976
2023-05-01T12:03:40.420Z,13.4617
2023-05-01T12:04:41.384Z,13.3791
2023-05-01T12:05:42.419Z,13.3724
2023-05-01T12:06:43.541Z,13.3173
2023-05-01T12:07:44.510Z,13.4523
2023-05-01T12:08:45.513Z,13.3214
2023-05-01T12:09:46.568Z,13.2783
2023-05-01T12:10:47.563Z,13.4182
2023-05-01T12:11:50.537Z,13.5014
2023-05-01T12:12:49.724Z,13.5624
2023-05-01T12:13:50.637Z,13.4800
2023-05-01T12:14:51.669Z,13.5558
2023-05-01T12:15:52.755Z,13.7008
2023-05-01T12:16:53.871Z,13.6174
2023-05-01T12:17:54.856Z,13.7518
2023-05-01T12:18:55.824Z,13.7764
2023-05-01T12:19:56.915Z,13.7955
2023-05-01T12:20:57.970Z,13.8444
2023-05-01T12:21:58.935Z,13.8138
2023-05-01T12:22:59.980Z,13.7372
2023-05-01T12:24:00.989Z,13.9134
2023-05-01T12:25:02.003Z,13.9169